• Join FlightAware (Why Join?)
  • Login
  • US Flag 
08:31PM EST


 

Airport Tracker/Info


-or-


 

Live Flight TrackerFlight Track Log ✈ N612TX ✈ 10-Jun-2013 ✈ KHVC - KSUE

Flight Track Log - Related Links

Times and Time Zones

All times are in EDT time to prevent confusion due to time zone crossing. See the N612TX flight status page for this flight to view local times or setup timezone preferences in your user account.

Time Position Orientation Groundspeed Altitude Reporting Facility
EDT Latitude Longitude Course Direction KTS MPH feet Rate Location/Type
10:28AM 36.8683 -87.4369 North 166 191 3,500  Level Memphis Center
10:29AM 36.9181 -87.4272 North 169 194 5,800 1,800 Climbing Memphis Center
10:30AM 36.9578 -87.4336 353° North 170 196 7,400 1,800 Climbing Memphis Center
10:31AM 37.0036 -87.4344 359° North 170 196 9,400 1,740 Climbing Memphis Center
10:34AM 37.1122 -87.4339 360° North 166 191 13,300 1,500 Climbing Indianapolis Center
10:35AM 37.1692 -87.4336 360° North 198 228 14,500 1,200 Climbing Indianapolis Center
10:36AM 37.2283 -87.4328 North 207 238 15,800 1,200 Climbing Indianapolis Center
10:37AM 37.2844 -87.4319 North 202 232 17,000 1,020 Climbing Indianapolis Center
10:38AM 37.3417 -87.4319 360° North 203 234 18,000 480 Climbing Indianapolis Center
10:39AM 37.4161 -87.4333 359° North 228 262 18,000  Level Indianapolis Center
10:40AM 37.4867 -87.4331 360° North 249 287 18,000 180 Level Indianapolis Center
10:41AM 37.5575 -87.4317 North 252 290 18,400 780 Climbing Indianapolis Center
10:42AM 37.6208 -87.4331 359° North 228 262 19,600 840 Climbing Indianapolis Center
10:43AM 37.6819 -87.4328 360° North 219 252 20,200 840 Climbing Indianapolis Center
10:44AM 37.7422 -87.4314 North 215 247 21,400 840 Climbing Indianapolis Center
10:45AM 37.7964 -87.4314 360° North 204 235 22,000 300 Climbing Indianapolis Center
10:46AM 37.8647 -87.4317 360° North 241 277 22,100 360 Climbing Indianapolis Center
10:47AM 37.9483 -87.4328 359° North 248 285 22,800 420 Climbing Indianapolis Center
10:48AM 38.0175 -87.4325 360° North 248 285 23,000 60 Climbing Indianapolis Center
10:49AM 38.0919 -87.4319 360° North 263 303 23,000  Level Indianapolis Center
10:50AM 38.1661 -87.4322 360° North 265 305 23,000  Level Indianapolis Center
10:51AM 38.2397 -87.4381 356° North 262 302 23,000  Level Indianapolis Center
10:52AM 38.3111 -87.4453 355° North 256 295 23,000  Level Indianapolis Center
10:53AM 38.3842 -87.4531 355° North 260 299 23,000  Level Indianapolis Center
10:54AM 38.4589 -87.4517 North 265 305 23,000  Level Indianapolis Center
10:55AM 38.5342 -87.4511 360° North 266 306 23,000  Level Indianapolis Center
10:56AM 38.6097 -87.4517 360° North 269 310 23,000  Level Indianapolis Center
10:57AM 38.6847 -87.4511 360° North 268 308 23,000  Level Indianapolis Center
10:58AM 38.7761 -87.4508 360° North 271 312 23,000  Level Indianapolis Center
10:59AM 38.8508 -87.4506 360° North 267 307 23,000  Level Indianapolis Center
11:00AM 38.9264 -87.4497 360° North 270 311 23,000  Level Indianapolis Center
11:01AM 39.0006 -87.4506 359° North 265 305 23,000  Level Indianapolis Center
11:02AM 39.0761 -87.4494 North 269 310 23,000  Level Indianapolis Center
11:03AM 39.1517 -87.4492 360° North 267 307 23,000  Level Indianapolis Center
11:04AM 39.2272 -87.4489 360° North 270 311 23,000  Level Indianapolis Center
11:05AM 39.3025 -87.4497 360° North 271 312 23,000  Level Indianapolis Center
11:06AM 39.3775 -87.4489 360° North 271 312 23,000  Level Indianapolis Center
11:08AM 39.4503 -87.4483 360° North 265 305 23,000  Level Indianapolis Center
11:09AM 39.5358 -87.4478 360° North 259 298 23,000  Level Indianapolis Center
11:10AM 39.6086 -87.4475 360° North 260 299 23,000  Level Indianapolis Center
11:11AM 39.6811 -87.4469 360° North 261 300 23,000  Level Indianapolis Center
11:12AM 39.7531 -87.4469 360° North 260 299 23,000  Level Indianapolis Center
11:13AM 39.8253 -87.4464 360° North 258 297 23,000  Level Indianapolis Center
11:14AM 39.8969 -87.4453 North 257 296 23,000  Level Indianapolis Center
11:15AM 39.9689 -87.4456 360° North 258 297 23,000  Level Indianapolis Center
11:16AM 40.0403 -87.4450 360° North 257 296 23,000  Level Indianapolis Center
11:17AM 40.1247 -87.4450 360° North 255 293 23,000  Level Indianapolis Center
11:17AM 40.1386 -87.4469 354° North 254 292 23,000  Level Chicago Center
11:18AM 40.2097 -87.4456 North 255 293 23,000  Level Chicago Center
11:19AM 40.2956 -87.4456 360° North 256 295 23,000  Level Chicago Center
11:20AM 40.3653 -87.4453 360° North 253 291 23,000  Level Chicago Center
11:21AM 40.4342 -87.4447 360° North 251 289 23,000  Level Chicago Center
11:22AM 40.5042 -87.4439 North 250 288 23,000  Level Chicago Center
11:23AM 40.5728 -87.4431 North 248 285 23,000  Level Chicago Center
11:24AM 40.6556 -87.4428 360° North 249 287 23,000  Level Chicago Center
11:25AM 40.7231 -87.4425 360° North 245 282 23,000  Level Chicago Center
11:26AM 40.7914 -87.4425 360° North 246 283 23,000  Level Chicago Center
11:27AM 40.8581 -87.4414 North 242 278 23,000  Level Chicago Center
11:28AM 40.9244 -87.4411 360° North 241 277 23,000  Level Chicago Center
11:29AM 40.9900 -87.4408 360° North 237 273 23,000  Level Chicago Center
11:30AM 41.0697 -87.4408 360° North 240 276 23,000  Level Chicago Center
11:32AM 41.1361 -87.4406 360° North 239 275 23,000  Level Chicago Center
11:33AM 41.2022 -87.4406 360° North 240 276 23,000  Level Chicago Center
11:34AM 41.2694 -87.4403 360° North 243 280 23,000  Level Chicago Center
11:35AM 41.3361 -87.4397 360° North 241 277 23,000  Level Chicago Center
11:36AM 41.4156 -87.4392 360° North 241 277 23,000  Level Chicago Center
11:37AM 41.4825 -87.4394 360° North 242 278 23,000  Level Chicago Center
11:38AM 41.5500 -87.4383 North 244 281 23,000  Level Chicago Center
11:39AM 41.6175 -87.4392 359° North 245 282 23,000  Level Chicago Center
11:40AM 41.6831 -87.4375 North 239 275 23,000  Level Chicago Center
11:41AM 41.7644 -87.4372 360° North 244 281 23,000  Level Chicago Center
11:42AM 41.8319 -87.4367 360° North 244 281 23,000  Level Chicago Center
11:43AM 41.8992 -87.4372 360° North 244 281 23,000  Level Chicago Center
11:44AM 41.9664 -87.4372 360° North 244 281 23,000  Level Chicago Center
11:45AM 42.0342 -87.4369 360° North 245 282 23,000  Level Chicago Center
11:46AM 42.1031 -87.4356 North 248 285 23,000  Level Chicago Center
11:47AM 42.1847 -87.4356 360° North 247 284 23,000  Level Chicago Center
11:48AM 42.2522 -87.4342 North 245 282 23,000  Level Chicago Center
11:49AM 42.3189 -87.4344 360° North 242 278 23,000  Level Chicago Center
11:50AM 42.3869 -87.4347 360° North 244 281 23,000  Level Chicago Center
11:51AM 42.4544 -87.4353 360° North 244 281 23,000  Level Chicago Center
11:52AM 42.5358 -87.4342 North 244 281 23,000  Level Chicago Center
11:53AM 42.6014 -87.4331 North 245 282 23,000  Level Chicago Center
11:54AM 42.6692 -87.4339 359° North 244 281 23,000  Level Chicago Center
11:55AM 42.7386 -87.4328 North 247 284 23,000  Level Chicago Center
11:56AM 42.8072 -87.4319 North 247 284 23,000  Level Chicago Center
11:57AM 42.8867 -87.4306 North 246 283 23,000  Level Chicago Center
11:58AM 42.9544 -87.4322 359° North 245 282 23,000  Level Chicago Center
12:00PM 43.0869 -87.4300 North 238 274 23,000  Level Minneapolis Center
12:01PM 43.1531 -87.4311 359° North 236 272 23,000  Level Minneapolis Center
12:02PM 43.2308 -87.4300 North 240 276 23,000  Level Chicago Center
12:03PM 43.2972 -87.4297 360° North 239 275 23,000  Level Chicago Center
12:05PM 43.3636 -87.4294 360° North 240 276 23,000  Level Chicago Center
12:06PM 43.4294 -87.4283 North 240 276 23,000  Level Chicago Center
12:07PM 43.4950 -87.4286 360° North 237 273 23,000  Level Chicago Center
12:08PM 43.5731 -87.4278 360° North 240 276 23,000  Level Chicago Center
12:09PM 43.6397 -87.4275 360° North 240 276 23,000 -300 Level Chicago Center
12:10PM 43.7058 -87.4261 North 238 274 22,500 -1,020 Descending Chicago Center
12:11PM 43.7811 -87.4264 360° North 265 305 21,000 -1,440 Descending Chicago Center
12:12PM 43.8561 -87.4272 360° North 269 310 19,600 -1,500 Descending Chicago Center
12:13PM 43.9414 -87.4250 North 264 304 17,900 -1,500 Descending Minneapolis Center
12:14PM 44.0133 -87.4236 North 260 299 16,500 -1,380 Descending Minneapolis Center
12:15PM 44.0878 -87.4244 360° North 266 306 15,100 -1,260 Descending Minneapolis Center
12:16PM 44.1622 -87.4222 North 266 306 14,000 -1,380 Descending Minneapolis Center
12:17PM 44.2358 -87.4219 360° North 263 303 12,300 -1,680 Descending Minneapolis Center
12:18PM 44.3253 -87.4242 359° North 272 313 10,600 -1,500 Descending Minneapolis Center
12:19PM 44.3967 -87.4242 360° North 263 303 9,300 -1,260 Descending Minneapolis Center
12:21PM 44.5306 -87.4247 360° North 239 275 6,700 -1,260 Descending Chicago Center
12:22PM 44.5939 -87.4211 North 234 269 5,500 -1,140 Descending Chicago Center
12:23PM 44.6517 -87.4150 North 230 265 4,400 -1,080 Descending Minneapolis Center